createdAt,value
2019-01-19T00:02:19.462Z,99936.79
2019-01-19T00:05:25.880Z,99936.79
2019-01-19T00:07:55.604Z,99935.53
2019-01-19T00:10:46.886Z,99931.73
2019-01-19T00:13:25.352Z,99932.13
2019-01-19T00:16:12.664Z,99932.13
2019-01-19T00:18:54.375Z,99936.97
2019-01-19T00:21:35.776Z,99940.40
2019-01-19T00:24:11.200Z,99939.94
2019-01-19T00:26:50.104Z,99936.91
2019-01-19T00:29:19.764Z,99934.31
2019-01-19T00:32:01.372Z,99927.80
2019-01-19T00:34:51.687Z,99930.44
2019-01-19T00:37:27.147Z,99929.52
2019-01-19T00:40:18.889Z,99923.03
2019-01-19T00:42:48.575Z,99923.03
2019-01-19T00:45:26.947Z,99928.65
2019-01-19T00:48:22.350Z,99928.65
2019-01-19T00:50:55.872Z,99936.93
2019-01-19T00:53:34.680Z,99928.66
2019-01-19T00:56:13.348Z,99935.22
2019-01-19T00:58:43.041Z,99937.25
2019-01-19T01:01:24.451Z,99937.25
2019-01-19T01:04:06.141Z,99929.06
2019-01-19T01:07:08.003Z,99927.28
2019-01-19T01:09:58.310Z,99930.88
2019-01-19T01:13:00.063Z,99930.88
2019-01-19T01:15:44.862Z,99935.27
2019-01-19T01:18:14.677Z,99936.57
2019-01-19T01:20:47.126Z,99929.11
2019-01-19T01:23:33.613Z,99929.11
2019-01-19T01:26:37.155Z,99937.43
2019-01-19T01:29:21.954Z,99937.43
2019-01-19T01:31:54.408Z,99937.44
2019-01-19T01:34:36.176Z,99937.83
2019-01-19T01:37:23.818Z,99937.83
2019-01-19T01:40:28.847Z,99939.48
2019-01-19T01:43:07.693Z,99945.05
2019-01-19T01:46:04.986Z,99945.05
2019-01-19T01:48:49.275Z,99941.11
2019-01-19T01:51:27.636Z,99940.31
2019-01-19T01:54:18.512Z,99938.09
2019-01-19T01:56:44.387Z,99940.27
2019-01-19T01:59:29.468Z,99937.56
2019-01-19T02:02:08.409Z,99937.69
2019-01-19T02:04:54.717Z,99942.61
2019-01-19T02:07:41.243Z,99931.27
2019-01-19T02:10:25.998Z,99932.40
2019-01-19T02:13:07.971Z,99932.40
2019-01-19T02:15:40.827Z,99929.77
2019-01-19T02:18:28.693Z,99929.90
2019-01-19T02:21:01.148Z,99929.90
2019-01-19T02:23:49.150Z,99937.30
2019-01-19T02:26:30.565Z,99929.30
2019-01-19T02:29:26.415Z,99929.30
2019-01-19T02:32:15.996Z,99926.70
2019-01-19T02:34:48.393Z,99929.39
2019-01-19T02:37:18.077Z,99933.30
2019-01-19T02:40:05.595Z,99938.63
2019-01-19T02:42:47.114Z,99934.67
2019-01-19T02:45:39.671Z,99935.93
2019-01-19T02:48:43.211Z,99935.02
2019-01-19T02:51:40.824Z,99935.39
2019-01-19T02:54:29.007Z,99935.81
2019-01-19T02:57:27.968Z,99936.85
2019-01-19T03:00:06.215Z,99941.70
2019-01-19T03:02:38.815Z,99941.19
2019-01-19T03:05:08.489Z,99942.09
2019-01-19T03:07:40.921Z,99933.72
2019-01-19T03:10:13.303Z,99929.32
2019-01-19T03:12:43.126Z,99924.53
2019-01-19T03:15:22.168Z,99927.59
2019-01-19T03:18:08.420Z,99923.62
2019-01-19T03:20:50.160Z,99923.16
2019-01-19T03:23:28.475Z,99914.02
2019-01-19T03:25:58.161Z,99913.12
2019-01-19T03:28:30.622Z,99917.05
2019-01-19T03:31:20.088Z,99910.94
2019-01-19T03:33:55.890Z,99913.58
2019-01-19T03:36:28.153Z,99914.50
2019-01-19T03:39:31.635Z,99909.73
2019-01-19T03:42:27.148Z,99914.89
2019-01-19T03:44:56.837Z,99913.17
2019-01-19T03:47:38.749Z,99914.50
2019-01-19T03:50:29.809Z,99911.89
2019-01-19T03:53:18.672Z,99906.61
2019-01-19T03:56:06.015Z,99912.41
2019-01-19T03:58:56.931Z,99909.00
2019-01-19T04:01:29.190Z,99898.12
2019-01-19T04:04:02.099Z,99902.06
2019-01-19T04:06:41.004Z,99902.97
2019-01-19T04:09:13.600Z,99902.97
2019-01-19T04:11:49.319Z,99905.58
2019-01-19T04:14:38.941Z,99902.95
2019-01-19T04:17:28.272Z,99916.45
2019-01-19T04:20:06.956Z,99917.78
2019-01-19T04:22:33.138Z,99909.91
2019-01-19T04:25:02.857Z,99909.05
2019-01-19T04:27:28.729Z,99916.81
2019-01-19T04:29:54.576Z,99916.81
2019-01-19T04:32:20.452Z,99917.70
2019-01-19T04:34:46.336Z,99916.84
2019-01-19T04:37:12.192Z,99920.41
2019-01-19T04:39:38.069Z,99918.64
2019-01-19T04:42:05.131Z,99920.80
2019-01-19T04:44:31.027Z,99919.16
2019-01-19T04:46:56.926Z,99920.39
2019-01-19T04:49:22.839Z,99920.39
2019-01-19T04:51:48.705Z,99926.94
2019-01-19T04:54:15.702Z,99920.33
2019-01-19T04:56:41.579Z,99918.50
2019-01-19T04:59:07.459Z,99919.13
2019-01-19T05:01:33.316Z,99922.04
2019-01-19T05:03:59.227Z,99919.43
2019-01-19T05:06:30.364Z,99921.81
2019-01-19T05:08:52.993Z,99919.20
2019-01-19T05:11:18.871Z,99918.00
2019-01-19T05:13:44.852Z,99918.41
2019-01-19T05:16:10.705Z,99921.83
2019-01-19T05:18:36.699Z,99923.08
2019-01-19T05:21:02.909Z,99922.69
2019-01-19T05:23:28.994Z,99922.67
2019-01-19T05:25:54.988Z,99916.69
2019-01-19T05:28:20.909Z,99922.33
2019-01-19T05:30:46.764Z,99922.77
2019-01-19T05:33:12.617Z,99927.16
2019-01-19T05:35:38.490Z,99921.08
2019-01-19T05:38:04.365Z,99922.83
2019-01-19T05:40:30.255Z,99922.83
2019-01-19T05:42:56.176Z,99923.28
2019-01-19T05:45:22.029Z,99924.59
2019-01-19T05:47:47.886Z,99922.50
2019-01-19T05:50:15.896Z,99919.36
2019-01-19T05:52:41.766Z,99915.02
2019-01-19T05:55:08.182Z,99920.70
2019-01-19T05:57:34.060Z,99918.09
2019-01-19T06:00:00.024Z,99917.18
2019-01-19T06:02:27.578Z,99921.93
2019-01-19T06:04:53.583Z,99921.52
2019-01-19T06:07:19.577Z,99918.90
2019-01-19T06:09:45.613Z,99929.46
2019-01-19T06:12:11.507Z,99924.14
2019-01-19T06:14:37.373Z,99924.59
2019-01-19T06:17:03.267Z,99923.36
2019-01-19T06:19:29.560Z,99919.88
2019-01-19T06:21:56.537Z,99922.92
2019-01-19T06:24:22.428Z,99922.92
2019-01-19T06:26:48.293Z,99924.75
2019-01-19T06:29:14.174Z,99924.34
2019-01-19T06:31:40.066Z,99924.27
2019-01-19T06:34:05.943Z,99924.75
2019-01-19T06:36:31.833Z,99922.47
2019-01-19T06:38:57.706Z,99922.55
2019-01-19T06:41:23.586Z,99920.82
2019-01-19T06:43:49.434Z,99926.92
2019-01-19T06:46:15.347Z,99926.05
2019-01-19T06:48:41.236Z,99931.70
2019-01-19T06:51:07.220Z,99930.81
2019-01-19T06:53:33.088Z,99931.26
2019-01-19T06:55:59.328Z,99932.94
2019-01-19T06:58:25.218Z,99938.59
2019-01-19T07:00:53.015Z,99930.81
2019-01-19T07:03:18.908Z,99934.70
2019-01-19T07:05:44.785Z,99939.53
2019-01-19T07:08:10.677Z,99935.59
2019-01-19T07:10:36.535Z,99940.42
2019-01-19T07:13:02.528Z,99934.33
2019-01-19T07:15:28.429Z,99935.15
2019-01-19T07:17:54.348Z,99936.05
2019-01-19T07:20:23.420Z,99941.25
2019-01-19T07:22:49.374Z,99940.42
2019-01-19T07:25:15.268Z,99941.73
2019-01-19T07:27:41.116Z,99944.73
2019-01-19T07:30:12.713Z,99943.04
2019-01-19T07:32:38.655Z,99944.27
2019-01-19T07:35:04.491Z,99950.38
2019-01-19T07:37:30.346Z,99949.11
2019-01-19T07:39:56.208Z,99956.02
2019-01-19T07:42:22.088Z,99953.48
2019-01-19T07:44:47.979Z,99953.85
2019-01-19T07:47:14.218Z,99951.19
2019-01-19T07:49:40.111Z,99953.77
2019-01-19T07:52:06.004Z,99953.77
2019-01-19T07:54:31.898Z,99956.39
2019-01-19T07:56:58.129Z,99953.27
2019-01-19T07:59:23.987Z,99960.67
2019-01-19T08:01:49.853Z,99961.98
2019-01-19T08:04:15.715Z,99961.13
2019-01-19T08:06:41.615Z,99965.45
2019-01-19T08:09:07.481Z,99966.37
2019-01-19T08:11:33.377Z,99974.28
2019-01-19T08:13:59.252Z,99976.48
2019-01-19T08:16:25.241Z,99976.48
2019-01-19T08:18:51.096Z,99983.03
2019-01-19T08:21:16.960Z,99984.75
2019-01-19T08:23:42.823Z,99981.64
2019-01-19T08:26:08.684Z,99986.88
2019-01-19T08:28:34.594Z,99982.45
2019-01-19T08:31:00.479Z,99987.64
2019-01-19T08:33:26.342Z,99986.33
2019-01-19T08:35:52.815Z,99989.41
2019-01-19T08:38:18.697Z,99988.04
2019-01-19T08:40:44.578Z,99991.86
2019-01-19T08:43:12.349Z,99990.27
2019-01-19T08:45:38.364Z,99991.57
2019-01-19T08:48:04.296Z,99999.77
2019-01-19T08:50:30.191Z,99991.98
2019-01-19T08:52:56.061Z,99999.98
2019-01-19T08:55:21.915Z,100008.75
2019-01-19T08:57:48.663Z,100007.02
2019-01-19T09:00:19.204Z,100017.54
2019-01-19T09:02:45.078Z,100021.56
2019-01-19T09:05:11.582Z,100021.14
2019-01-19T09:07:37.450Z,100020.28
2019-01-19T09:10:07.717Z,100023.67
2019-01-19T09:12:33.644Z,100023.52
2019-01-19T09:14:59.527Z,100027.27
2019-01-19T09:17:25.433Z,100022.75
2019-01-19T09:19:51.312Z,100025.55
2019-01-19T09:22:17.171Z,100032.11
2019-01-19T09:24:43.044Z,100030.94
2019-01-19T09:27:08.913Z,100045.95
2019-01-19T09:29:34.951Z,100042.98
2019-01-19T09:32:00.826Z,100042.52
2019-01-19T09:34:26.687Z,100048.11
2019-01-19T09:36:52.603Z,100047.22
2019-01-19T09:39:18.479Z,100056.80
2019-01-19T09:41:44.615Z,100044.56
2019-01-19T09:44:10.513Z,100046.77
2019-01-19T09:46:36.509Z,100046.77
2019-01-19T09:49:02.821Z,100061.21
2019-01-19T09:51:29.092Z,100065.11
2019-01-19T09:53:54.989Z,100056.05
2019-01-19T09:56:20.882Z,100062.15
2019-01-19T09:58:47.997Z,100061.24
2019-01-19T10:01:13.881Z,100049.50
2019-01-19T10:03:39.741Z,100059.09
2019-01-19T10:06:05.641Z,100056.83
2019-01-19T10:08:31.525Z,100055.08
2019-01-19T10:10:57.645Z,100046.70
2019-01-19T10:13:23.472Z,100042.27
2019-01-19T10:15:49.340Z,100040.28
2019-01-19T10:18:15.523Z,100039.28
2019-01-19T10:20:41.809Z,100035.81
2019-01-19T10:23:07.693Z,100031.02
2019-01-19T10:25:33.597Z,100030.15
2019-01-19T10:27:59.414Z,100028.39
2019-01-19T10:30:31.231Z,100029.58
2019-01-19T10:32:57.086Z,100024.38
2019-01-19T10:35:22.982Z,100027.05
2019-01-19T10:37:55.751Z,100025.70
2019-01-19T10:40:17.331Z,100026.19
2019-01-19T10:42:43.204Z,100028.62
2019-01-19T10:45:12.377Z,100023.33
2019-01-19T10:47:38.226Z,100025.64
2019-01-19T10:50:07.901Z,100021.62
2019-01-19T10:52:33.774Z,100022.93
2019-01-19T10:54:59.663Z,100017.63
2019-01-19T10:57:25.510Z,100019.99
2019-01-19T10:59:52.235Z,100019.18
2019-01-19T11:02:18.114Z,100013.45
2019-01-19T11:04:44.013Z,100011.27
2019-01-19T11:07:09.865Z,100012.19
2019-01-19T11:09:35.765Z,100006.48
2019-01-19T11:12:01.650Z,100007.39
2019-01-19T11:14:27.497Z,100001.29
2019-01-19T11:16:53.433Z,99995.95
2019-01-19T11:19:19.281Z,99984.16
2019-01-19T11:21:45.157Z,99984.75
2019-01-19T11:24:11.014Z,99989.90
2019-01-19T11:26:36.889Z,99983.19
2019-01-19T11:29:02.752Z,99978.86
2019-01-19T11:31:28.682Z,99978.73
2019-01-19T11:33:54.550Z,99971.39
2019-01-19T11:36:20.421Z,99971.28
2019-01-19T11:38:47.144Z,99971.72
2019-01-19T11:41:13.026Z,99966.55
2019-01-19T11:43:38.895Z,99961.30
2019-01-19T11:46:04.764Z,99958.62
2019-01-19T11:48:31.049Z,99956.37
2019-01-19T11:50:56.943Z,99952.59
2019-01-19T11:53:22.821Z,99948.61
2019-01-19T11:55:48.718Z,99939.95
2019-01-19T11:58:14.562Z,99936.33
2019-01-19T12:00:41.339Z,99934.26
2019-01-19T12:03:07.190Z,99923.83
2019-01-19T12:05:33.082Z,99929.55
2019-01-19T12:07:58.943Z,99929.62
2019-01-19T12:10:26.745Z,99919.03
2019-01-19T12:12:52.595Z,99915.90
2019-01-19T12:15:18.476Z,99911.41
2019-01-19T12:17:44.397Z,99914.19
2019-01-19T12:20:22.659Z,99903.91
2019-01-19T12:22:48.586Z,99900.54
2019-01-19T12:25:20.491Z,99897.22
2019-01-19T12:27:48.800Z,99888.43
2019-01-19T12:30:22.862Z,99888.35
2019-01-19T12:32:48.732Z,99878.93
2019-01-19T12:35:15.121Z,99878.94
2019-01-19T12:37:41.129Z,99874.72
2019-01-19T12:40:12.903Z,99872.11
2019-01-19T12:43:01.041Z,99868.63
2019-01-19T12:45:42.741Z,99870.59
2019-01-19T12:48:08.621Z,99862.16
2019-01-19T12:50:34.727Z,99865.42
2019-01-19T12:53:00.786Z,99858.63
2019-01-19T12:55:26.654Z,99859.47
2019-01-19T12:57:52.569Z,99852.20
2019-01-19T13:00:20.964Z,99856.09
2019-01-19T13:02:48.115Z,99849.08
2019-01-19T13:05:17.513Z,99845.48
2019-01-19T13:07:44.087Z,99847.21
2019-01-19T13:10:19.916Z,99843.70
2019-01-19T13:12:46.322Z,99840.80
2019-01-19T13:15:22.089Z,99840.17
2019-01-19T13:18:04.075Z,99839.85
2019-01-19T13:20:42.602Z,99839.72
2019-01-19T13:23:18.108Z,99832.69
2019-01-19T13:25:53.807Z,99828.95
2019-01-19T13:28:35.957Z,99833.70
2019-01-19T13:31:33.166Z,99823.63
2019-01-19T13:34:14.899Z,99826.56
2019-01-19T13:36:53.630Z,99822.03
2019-01-19T13:39:29.241Z,99828.40
2019-01-19T13:42:18.814Z,99826.41
2019-01-19T13:45:04.150Z,99819.70
2019-01-19T13:47:36.872Z,99826.82
2019-01-19T13:50:35.523Z,99825.89
2019-01-19T13:53:16.554Z,99822.88
2019-01-19T13:56:06.250Z,99822.88
2019-01-19T13:58:36.118Z,99816.80
2019-01-19T14:01:27.105Z,99825.41
2019-01-19T14:03:57.715Z,99821.13
2019-01-19T14:06:36.184Z,99815.19
2019-01-19T14:09:23.617Z,99818.75
2019-01-19T14:12:11.374Z,99816.19
2019-01-19T14:14:43.912Z,99819.09
2019-01-19T14:17:36.532Z,99818.63
2019-01-19T14:20:15.427Z,99820.32
2019-01-19T14:22:47.965Z,99819.19
2019-01-19T14:25:36.261Z,99821.14
2019-01-19T14:28:12.149Z,99824.21
2019-01-19T14:30:44.841Z,99821.98
2019-01-19T14:33:23.730Z,99817.03
2019-01-19T14:36:12.625Z,99821.28
2019-01-19T14:38:56.842Z,99820.28
2019-01-19T14:41:34.958Z,99813.67
2019-01-19T14:44:23.005Z,99815.37
2019-01-19T14:46:52.673Z,99814.00
2019-01-19T14:49:34.407Z,99807.17
2019-01-19T14:52:07.142Z,99812.66
2019-01-19T14:54:48.011Z,99808.22
2019-01-19T14:57:23.982Z,99795.73
2019-01-19T14:59:56.707Z,99802.77
2019-01-19T15:02:32.403Z,99803.87
2019-01-19T15:05:02.986Z,99801.40
2019-01-19T15:07:32.696Z,99805.22
2019-01-19T15:10:13.693Z,99800.22
2019-01-19T15:12:52.133Z,99799.48
2019-01-19T15:15:27.632Z,99803.20
2019-01-19T15:18:15.675Z,99803.41
2019-01-19T15:20:51.646Z,99799.11
2019-01-19T15:23:39.065Z,99797.13
2019-01-19T15:26:14.991Z,99802.31
2019-01-19T15:29:07.459Z,99799.31
2019-01-19T15:31:49.435Z,99802.50
2019-01-19T15:34:25.442Z,99806.73
2019-01-19T15:37:11.822Z,99799.44
2019-01-19T15:39:47.537Z,99799.09
2019-01-19T15:42:29.534Z,99803.34
2019-01-19T15:45:08.572Z,99796.15
2019-01-19T15:47:55.206Z,99803.29
2019-01-19T15:50:41.799Z,99801.34
2019-01-19T15:53:28.406Z,99802.66
2019-01-19T15:56:15.114Z,99804.36
2019-01-19T15:59:01.718Z,99794.79
2019-01-19T16:01:48.215Z,99802.70
2019-01-19T16:04:35.122Z,99804.49
2019-01-19T19:48:59.681Z,99808.23
2019-01-19T19:51:59.640Z,99813.01
2019-01-19T19:54:25.712Z,99806.91
2019-01-19T19:56:51.607Z,99807.38
2019-01-19T19:59:17.553Z,99810.41
2019-01-19T20:01:43.440Z,99809.53
2019-01-19T20:06:53.723Z,99813.87
2019-01-19T20:09:20.618Z,99816.47
2019-01-19T20:13:29.038Z,99822.12
2019-01-19T20:15:56.231Z,99815.16
2019-01-19T20:18:23.621Z,99819.08
2019-01-19T20:20:51.155Z,99823.00
2019-01-19T20:23:17.652Z,99823.00
2019-01-19T20:25:44.696Z,99813.85
2019-01-19T20:28:11.945Z,99813.85
2019-01-19T20:30:39.109Z,99819.09
2019-01-19T20:33:08.003Z,99810.37
2019-01-19T20:35:35.011Z,99816.88
2019-01-19T20:38:02.128Z,99809.93
2019-01-19T20:40:29.123Z,99823.00
2019-01-19T20:42:56.252Z,99822.54
2019-01-19T20:45:23.032Z,99821.23
2019-01-19T20:47:50.136Z,99825.59
2019-01-19T20:50:16.764Z,99825.59
2019-01-19T20:52:43.657Z,99833.02
2019-01-19T20:57:51.197Z,99827.35
2019-01-19T21:00:18.273Z,99829.10
2019-01-19T21:02:44.267Z,99820.84
2019-01-19T21:05:13.148Z,99820.84
2019-01-19T21:07:39.036Z,99829.11
2019-01-19T21:10:05.978Z,99829.11
2019-01-19T21:12:31.966Z,99824.30
2019-01-19T21:14:57.850Z,99819.94
2019-01-19T21:17:23.720Z,99819.94
2019-01-19T21:19:49.750Z,99826.92
2019-01-19T21:22:15.620Z,99820.41
2019-01-19T21:24:41.496Z,99827.81
2019-01-19T21:27:07.535Z,99822.13
2019-01-19T21:29:33.590Z,99823.02
2019-01-19T21:31:59.455Z,99823.45
2019-01-19T21:34:25.466Z,99823.03
2019-01-19T21:36:51.430Z,99825.20
2019-01-19T21:39:17.410Z,99823.45
2019-01-19T21:41:43.331Z,99821.29
2019-01-19T21:44:09.204Z,99822.17
2019-01-19T21:46:35.107Z,99822.17
2019-01-19T21:49:01.112Z,99820.44
2019-01-19T21:51:26.981Z,99821.73
2019-01-19T21:53:52.879Z,99820.44
2019-01-19T21:56:18.811Z,99817.81
2019-01-19T21:58:44.881Z,99820.00
2019-01-19T22:01:10.748Z,99818.25
2019-01-19T22:03:36.691Z,99820.45
2019-01-19T22:06:02.554Z,99820.42
2019-01-19T22:08:28.416Z,99823.91
2019-01-19T22:10:54.384Z,99811.29
2019-01-19T22:13:20.422Z,99818.27
2019-01-19T22:15:46.725Z,99818.24
2019-01-19T22:18:12.603Z,99818.67
2019-01-19T22:20:38.478Z,99819.99
2019-01-19T22:23:04.388Z,99816.94
2019-01-19T22:25:30.257Z,99815.64
2019-01-19T22:27:56.134Z,99820.00
2019-01-19T22:30:22.929Z,99820.42
2019-01-19T22:32:50.786Z,99820.44
2019-01-19T22:35:16.640Z,99816.96
2019-01-19T22:37:42.642Z,99812.16
2019-01-19T22:40:12.170Z,99812.16
2019-01-19T22:42:38.036Z,99810.42
2019-01-19T22:45:07.314Z,99808.67
2019-01-19T22:47:33.185Z,99801.27
2019-01-19T22:49:59.126Z,99803.89
2019-01-19T22:52:25.003Z,99812.58
2019-01-19T22:54:50.856Z,99809.09
2019-01-19T22:57:16.765Z,99809.97
2019-01-19T22:59:42.660Z,99805.60
2019-01-19T23:02:08.518Z,99803.87
2019-01-19T23:04:34.399Z,99801.66
2019-01-19T23:07:00.305Z,99806.47
2019-01-19T23:09:26.165Z,99800.79
2019-01-19T23:11:52.140Z,99800.79
2019-01-19T23:14:21.927Z,99800.35
2019-01-19T23:16:47.802Z,99803.40
2019-01-19T23:19:14.063Z,99800.38
2019-01-19T23:21:39.913Z,99794.72
2019-01-19T23:24:05.785Z,99796.03
2019-01-19T23:26:32.451Z,99792.56
2019-01-19T23:28:58.318Z,99787.34
2019-01-19T23:31:24.223Z,99782.57
2019-01-19T23:33:50.079Z,99784.73
2019-01-19T23:36:15.946Z,99785.58
2019-01-19T23:38:41.891Z,99780.77
2019-01-19T23:41:09.148Z,99782.54
2019-01-19T23:43:35.397Z,99780.81
2019-01-19T23:46:01.257Z,99779.50
2019-01-19T23:48:27.169Z,99777.75
2019-01-19T23:50:53.050Z,99768.18
2019-01-19T23:53:18.987Z,99773.84
2019-01-19T23:55:44.839Z,99768.17
2019-01-19T23:58:10.759Z,99769.03
